sensor_id;sensor_type;location;lat;lon;timestamp;P1;durP1;ratioP1;P2;durP2;ratioP2
5052;SDS011;2545;50.892;5.740;2022-09-16T00:00:15;10.97;;;3.10;;
5052;SDS011;2545;50.892;5.740;2022-09-16T00:02:40;9.40;;;3.50;;
5052;SDS011;2545;50.892;5.740;2022-09-16T00:05:06;20.53;;;3.63;;
5052;SDS011;2545;50.892;5.740;2022-09-16T00:07:32;16.23;;;4.27;;
5052;SDS011;2545;50.892;5.740;2022-09-16T00:09:58;16.50;;;3.83;;
5052;SDS011;2545;50.892;5.740;2022-09-16T00:12:23;12.20;;;3.47;;
5052;SDS011;2545;50.892;5.740;2022-09-16T00:14:50;12.10;;;3.10;;
5052;SDS011;2545;50.892;5.740;2022-09-16T00:17:16;9.20;;;3.17;;
5052;SDS011;2545;50.892;5.740;2022-09-16T00:19:42;5.03;;;2.63;;
5052;SDS011;2545;50.892;5.740;2022-09-16T00:22:07;7.23;;;2.23;;
5052;SDS011;2545;50.892;5.740;2022-09-16T00:24:32;7.63;;;2.30;;
5052;SDS011;2545;50.892;5.740;2022-09-16T00:26:57;7.70;;;2.60;;
5052;SDS011;2545;50.892;5.740;2022-09-16T00:29:23;7.07;;;2.87;;
5052;SDS011;2545;50.892;5.740;2022-09-16T00:31:48;5.77;;;2.23;;
5052;SDS011;2545;50.892;5.740;2022-09-16T00:34:13;7.07;;;2.27;;
5052;SDS011;2545;50.892;5.740;2022-09-16T00:36:39;8.70;;;3.00;;
5052;SDS011;2545;50.892;5.740;2022-09-16T00:39:04;9.03;;;2.00;;
5052;SDS011;2545;50.892;5.740;2022-09-16T00:41:30;8.30;;;3.10;;
5052;SDS011;2545;50.892;5.740;2022-09-16T00:46:51;13.00;;;2.60;;
5052;SDS011;2545;50.892;5.740;2022-09-16T00:49:19;21.73;;;3.13;;
5052;SDS011;2545;50.892;5.740;2022-09-16T00:51:50;14.80;;;2.80;;
5052;SDS011;2545;50.892;5.740;2022-09-16T00:54:18;5.77;;;2.23;;
5052;SDS011;2545;50.892;5.740;2022-09-16T00:56:46;11.53;;;2.37;;
5052;SDS011;2545;50.892;5.740;2022-09-16T01:01:55;10.57;;;2.17;;
5052;SDS011;2545;50.892;5.740;2022-09-16T01:04:46;5.80;;;1.80;;
5052;SDS011;2545;50.892;5.740;2022-09-16T01:07:15;12.00;;;2.67;;
5052;SDS011;2545;50.892;5.740;2022-09-16T01:09:45;14.93;;;2.93;;
5052;SDS011;2545;50.892;5.740;2022-09-16T01:12:10;14.80;;;2.40;;
5052;SDS011;2545;50.892;5.740;2022-09-16T01:14:36;13.40;;;2.73;;
5052;SDS011;2545;50.892;5.740;2022-09-16T01:17:35;10.60;;;2.83;;
5052;SDS011;2545;50.892;5.740;2022-09-16T01:20:46;8.17;;;2.60;;
5052;SDS011;2545;50.892;5.740;2022-09-16T01:31:46;18.90;;;4.07;;
5052;SDS011;2545;50.892;5.740;2022-09-16T01:37:18;11.57;;;4.47;;
5052;SDS011;2545;50.892;5.740;2022-09-16T01:40:26;8.83;;;3.47;;
5052;SDS011;2545;50.892;5.740;2022-09-16T01:45:59;10.20;;;3.23;;
5052;SDS011;2545;50.892;5.740;2022-09-16T01:54:12;9.93;;;2.20;;
5052;SDS011;2545;50.892;5.740;2022-09-16T01:57:04;11.13;;;3.37;;
5052;SDS011;2545;50.892;5.740;2022-09-16T01:59:43;5.93;;;2.20;;
5052;SDS011;2545;50.892;5.740;2022-09-16T02:02:16;6.87;;;2.33;;
5052;SDS011;2545;50.892;5.740;2022-09-16T02:04:47;11.13;;;2.87;;
5052;SDS011;2545;50.892;5.740;2022-09-16T02:07:16;3.87;;;2.50;;
5052;SDS011;2545;50.892;5.740;2022-09-16T02:09:47;13.30;;;2.67;;
5052;SDS011;2545;50.892;5.740;2022-09-16T02:12:20;6.03;;;2.20;;
5052;SDS011;2545;50.892;5.740;2022-09-16T02:14:49;5.63;;;2.50;;
5052;SDS011;2545;50.892;5.740;2022-09-16T02:17:19;12.27;;;2.60;;
5052;SDS011;2545;50.892;5.740;2022-09-16T02:19:48;7.33;;;2.20;;
5052;SDS011;2545;50.892;5.740;2022-09-16T02:22:22;8.10;;;2.43;;
5052;SDS011;2545;50.892;5.740;2022-09-16T02:24:54;5.23;;;1.90;;
5052;SDS011;2545;50.892;5.740;2022-09-16T02:27:20;6.40;;;2.60;;
5052;SDS011;2545;50.892;5.740;2022-09-16T02:29:54;4.83;;;1.93;;
5052;SDS011;2545;50.892;5.740;2022-09-16T02:32:25;30.67;;;3.03;;
5052;SDS011;2545;50.892;5.740;2022-09-16T02:34:53;3.50;;;2.37;;
5052;SDS011;2545;50.892;5.740;2022-09-16T02:37:28;10.53;;;2.30;;
5052;SDS011;2545;50.892;5.740;2022-09-16T02:39:59;8.50;;;2.40;;
5052;SDS011;2545;50.892;5.740;2022-09-16T02:42:30;5.20;;;2.17;;
5052;SDS011;2545;50.892;5.740;2022-09-16T02:44:56;15.73;;;2.60;;
5052;SDS011;2545;50.892;5.740;2022-09-16T02:47:39;5.43;;;2.10;;
5052;SDS011;2545;50.892;5.740;2022-09-16T02:50:19;9.87;;;2.07;;
5052;SDS011;2545;50.892;5.740;2022-09-16T02:52:56;7.70;;;1.90;;
5052;SDS011;2545;50.892;5.740;2022-09-16T02:55:45;11.70;;;2.30;;
5052;SDS011;2545;50.892;5.740;2022-09-16T02:58:17;6.80;;;2.10;;
5052;SDS011;2545;50.892;5.740;2022-09-16T03:00:45;6.80;;;2.07;;
5052;SDS011;2545;50.892;5.740;2022-09-16T03:03:12;10.83;;;2.50;;
5052;SDS011;2545;50.892;5.740;2022-09-16T03:06:02;8.63;;;2.93;;
5052;SDS011;2545;50.892;5.740;2022-09-16T03:08:32;8.73;;;2.83;;
5052;SDS011;2545;50.892;5.740;2022-09-16T03:11:22;12.60;;;2.37;;
5052;SDS011;2545;50.892;5.740;2022-09-16T03:19:13;12.73;;;3.17;;
5052;SDS011;2545;50.892;5.740;2022-09-16T03:24:52;8.03;;;2.50;;
5052;SDS011;2545;50.892;5.740;2022-09-16T03:27:34;8.90;;;2.67;;
5052;SDS011;2545;50.892;5.740;2022-09-16T03:30:08;21.47;;;4.30;;
5052;SDS011;2545;50.892;5.740;2022-09-16T03:32:42;9.10;;;3.43;;
5052;SDS011;2545;50.892;5.740;2022-09-16T03:35:55;19.27;;;3.27;;
5052;SDS011;2545;50.892;5.740;2022-09-16T03:38:07;12.20;;;3.30;;
5052;SDS011;2545;50.892;5.740;2022-09-16T03:40:34;12.13;;;4.00;;
5052;SDS011;2545;50.892;5.740;2022-09-16T03:43:08;12.87;;;3.33;;
5052;SDS011;2545;50.892;5.740;2022-09-16T03:45:35;5.63;;;3.03;;
5052;SDS011;2545;50.892;5.740;2022-09-16T03:48:00;9.17;;;2.87;;
5052;SDS011;2545;50.892;5.740;2022-09-16T03:50:25;11.33;;;2.83;;
5052;SDS011;2545;50.892;5.740;2022-09-16T03:52:51;11.67;;;2.70;;
5052;SDS011;2545;50.892;5.740;2022-09-16T03:55:16;16.10;;;2.87;;
5052;SDS011;2545;50.892;5.740;2022-09-16T03:57:41;10.30;;;2.90;;
5052;SDS011;2545;50.892;5.740;2022-09-16T04:00:07;10.00;;;2.73;;
5052;SDS011;2545;50.892;5.740;2022-09-16T04:02:33;9.07;;;2.00;;
5052;SDS011;2545;50.892;5.740;2022-09-16T04:04:59;3.73;;;1.90;;
5052;SDS011;2545;50.892;5.740;2022-09-16T04:07:24;8.90;;;2.20;;
5052;SDS011;2545;50.892;5.740;2022-09-16T04:09:50;4.20;;;2.50;;
5052;SDS011;2545;50.892;5.740;2022-09-16T04:12:15;11.20;;;2.53;;
5052;SDS011;2545;50.892;5.740;2022-09-16T04:14:40;5.97;;;2.30;;
5052;SDS011;2545;50.892;5.740;2022-09-16T04:17:06;2.33;;;1.60;;
5052;SDS011;2545;50.892;5.740;2022-09-16T04:19:31;6.73;;;2.23;;
5052;SDS011;2545;50.892;5.740;2022-09-16T04:21:57;6.43;;;1.70;;
5052;SDS011;2545;50.892;5.740;2022-09-16T04:24:22;11.07;;;2.40;;
5052;SDS011;2545;50.892;5.740;2022-09-16T04:26:47;20.53;;;2.50;;
5052;SDS011;2545;50.892;5.740;2022-09-16T04:29:13;7.57;;;2.20;;
5052;SDS011;2545;50.892;5.740;2022-09-16T04:31:38;7.40;;;1.97;;
5052;SDS011;2545;50.892;5.740;2022-09-16T04:34:04;7.17;;;1.90;;
5052;SDS011;2545;50.892;5.740;2022-09-16T04:36:29;4.60;;;1.80;;
5052;SDS011;2545;50.892;5.740;2022-09-16T04:38:56;9.40;;;2.13;;
5052;SDS011;2545;50.892;5.740;2022-09-16T04:41:22;6.53;;;1.90;;
5052;SDS011;2545;50.892;5.740;2022-09-16T04:43:50;4.50;;;1.83;;
5052;SDS011;2545;50.892;5.740;2022-09-16T04:46:25;16.73;;;2.17;;
5052;SDS011;2545;50.892;5.740;2022-09-16T04:48:52;5.10;;;2.20;;
5052;SDS011;2545;50.892;5.740;2022-09-16T04:51:19;5.30;;;2.57;;
5052;SDS011;2545;50.892;5.740;2022-09-16T04:53:46;9.00;;;2.13;;
5052;SDS011;2545;50.892;5.740;2022-09-16T04:56:13;4.93;;;1.97;;
5052;SDS011;2545;50.892;5.740;2022-09-16T04:58:44;2.97;;;1.70;;
5052;SDS011;2545;50.892;5.740;2022-09-16T05:01:12;7.63;;;2.20;;
5052;SDS011;2545;50.892;5.740;2022-09-16T05:03:40;11.33;;;2.13;;
5052;SDS011;2545;50.892;5.740;2022-09-16T05:06:07;2.83;;;1.80;;
5052;SDS011;2545;50.892;5.740;2022-09-16T05:08:34;4.23;;;2.30;;
5052;SDS011;2545;50.892;5.740;2022-09-16T05:11:10;4.50;;;2.43;;
5052;SDS011;2545;50.892;5.740;2022-09-16T05:13:37;6.23;;;1.97;;
5052;SDS011;2545;50.892;5.740;2022-09-16T05:16:06;16.83;;;2.70;;
5052;SDS011;2545;50.892;5.740;2022-09-16T05:18:36;5.67;;;2.40;;
5052;SDS011;2545;50.892;5.740;2022-09-16T05:21:03;8.77;;;2.07;;
5052;SDS011;2545;50.892;5.740;2022-09-16T05:23:30;6.33;;;2.40;;
5052;SDS011;2545;50.892;5.740;2022-09-16T05:26:01;19.80;;;2.30;;
5052;SDS011;2545;50.892;5.740;2022-09-16T05:28:28;8.23;;;2.33;;
5052;SDS011;2545;50.892;5.740;2022-09-16T05:30:53;9.97;;;1.87;;
5052;SDS011;2545;50.892;5.740;2022-09-16T05:33:18;11.60;;;2.20;;
5052;SDS011;2545;50.892;5.740;2022-09-16T05:35:44;4.80;;;2.10;;
5052;SDS011;2545;50.892;5.740;2022-09-16T05:38:10;10.13;;;2.40;;
5052;SDS011;2545;50.892;5.740;2022-09-16T05:40:35;13.00;;;2.37;;
5052;SDS011;2545;50.892;5.740;2022-09-16T05:43:01;7.47;;;1.90;;
5052;SDS011;2545;50.892;5.740;2022-09-16T05:45:26;4.17;;;1.80;;
5052;SDS011;2545;50.892;5.740;2022-09-16T05:47:51;9.23;;;2.07;;
5052;SDS011;2545;50.892;5.740;2022-09-16T05:50:17;8.13;;;2.10;;
5052;SDS011;2545;50.892;5.740;2022-09-16T05:52:42;11.77;;;1.77;;
5052;SDS011;2545;50.892;5.740;2022-09-16T05:55:07;3.90;;;1.60;;
5052;SDS011;2545;50.892;5.740;2022-09-16T05:57:33;7.07;;;1.70;;
5052;SDS011;2545;50.892;5.740;2022-09-16T05:59:58;10.23;;;2.30;;
5052;SDS011;2545;50.892;5.740;2022-09-16T06:02:23;6.30;;;2.30;;
5052;SDS011;2545;50.892;5.740;2022-09-16T06:04:49;7.83;;;2.07;;
5052;SDS011;2545;50.892;5.740;2022-09-16T06:07:14;11.03;;;2.20;;
5052;SDS011;2545;50.892;5.740;2022-09-16T06:09:40;6.97;;;2.33;;
5052;SDS011;2545;50.892;5.740;2022-09-16T06:12:05;5.20;;;1.60;;
5052;SDS011;2545;50.892;5.740;2022-09-16T06:14:31;6.57;;;2.07;;
5052;SDS011;2545;50.892;5.740;2022-09-16T06:16:56;2.37;;;1.60;;
5052;SDS011;2545;50.892;5.740;2022-09-16T06:19:22;3.83;;;1.63;;
5052;SDS011;2545;50.892;5.740;2022-09-16T06:21:47;10.40;;;2.37;;
5052;SDS011;2545;50.892;5.740;2022-09-16T06:24:13;10.73;;;2.33;;
5052;SDS011;2545;50.892;5.740;2022-09-16T06:26:40;4.90;;;2.23;;
5052;SDS011;2545;50.892;5.740;2022-09-16T06:29:07;10.23;;;2.20;;
5052;SDS011;2545;50.892;5.740;2022-09-16T06:31:34;3.63;;;1.80;;
5052;SDS011;2545;50.892;5.740;2022-09-16T06:34:00;10.10;;;2.40;;
5052;SDS011;2545;50.892;5.740;2022-09-16T06:36:29;4.03;;;2.30;;
5052;SDS011;2545;50.892;5.740;2022-09-16T06:38:59;11.80;;;2.37;;
5052;SDS011;2545;50.892;5.740;2022-09-16T06:41:24;13.87;;;2.23;;
5052;SDS011;2545;50.892;5.740;2022-09-16T06:43:49;8.93;;;2.10;;
5052;SDS011;2545;50.892;5.740;2022-09-16T06:46:20;6.60;;;1.80;;
5052;SDS011;2545;50.892;5.740;2022-09-16T06:48:52;5.40;;;2.23;;
5052;SDS011;2545;50.892;5.740;2022-09-16T06:51:21;2.90;;;1.87;;
5052;SDS011;2545;50.892;5.740;2022-09-16T06:53:48;6.87;;;2.67;;
5052;SDS011;2545;50.892;5.740;2022-09-16T06:56:15;8.43;;;2.07;;
5052;SDS011;2545;50.892;5.740;2022-09-16T06:58:43;11.40;;;2.67;;
5052;SDS011;2545;50.892;5.740;2022-09-16T07:01:15;4.93;;;2.47;;
5052;SDS011;2545;50.892;5.740;2022-09-16T07:03:43;11.50;;;2.70;;
5052;SDS011;2545;50.892;5.740;2022-09-16T07:06:10;7.13;;;2.00;;
5052;SDS011;2545;50.892;5.740;2022-09-16T07:08:38;7.37;;;1.87;;
5052;SDS011;2545;50.892;5.740;2022-09-16T07:13:30;7.40;;;2.37;;
5052;SDS011;2545;50.892;5.740;2022-09-16T07:15:59;9.53;;;2.40;;
5052;SDS011;2545;50.892;5.740;2022-09-16T07:18:29;5.83;;;1.90;;
5052;SDS011;2545;50.892;5.740;2022-09-16T07:21:11;6.03;;;1.50;;
5052;SDS011;2545;50.892;5.740;2022-09-16T07:23:39;3.37;;;1.83;;
5052;SDS011;2545;50.892;5.740;2022-09-16T07:26:06;13.13;;;2.37;;
5052;SDS011;2545;50.892;5.740;2022-09-16T07:28:34;7.33;;;1.87;;
5052;SDS011;2545;50.892;5.740;2022-09-16T07:31:00;5.73;;;1.97;;
5052;SDS011;2545;50.892;5.740;2022-09-16T07:33:29;10.73;;;2.20;;
5052;SDS011;2545;50.892;5.740;2022-09-16T07:35:59;7.23;;;1.90;;
5052;SDS011;2545;50.892;5.740;2022-09-16T07:38:25;6.50;;;2.40;;
5052;SDS011;2545;50.892;5.740;2022-09-16T07:40:51;12.43;;;1.90;;
5052;SDS011;2545;50.892;5.740;2022-09-16T07:43:17;10.80;;;2.50;;
5052;SDS011;2545;50.892;5.740;2022-09-16T07:45:42;8.20;;;2.00;;
5052;SDS011;2545;50.892;5.740;2022-09-16T07:48:07;24.10;;;2.37;;
5052;SDS011;2545;50.892;5.740;2022-09-16T07:50:33;8.53;;;1.93;;
5052;SDS011;2545;50.892;5.740;2022-09-16T07:52:59;3.50;;;1.83;;
5052;SDS011;2545;50.892;5.740;2022-09-16T07:55:24;4.53;;;2.00;;
5052;SDS011;2545;50.892;5.740;2022-09-16T07:57:50;4.97;;;1.70;;
5052;SDS011;2545;50.892;5.740;2022-09-16T08:00:15;4.67;;;1.60;;
5052;SDS011;2545;50.892;5.740;2022-09-16T08:02:41;6.97;;;1.87;;
5052;SDS011;2545;50.892;5.740;2022-09-16T08:05:06;6.03;;;1.77;;
5052;SDS011;2545;50.892;5.740;2022-09-16T08:07:33;6.50;;;1.60;;
5052;SDS011;2545;50.892;5.740;2022-09-16T08:09:59;3.00;;;1.70;;
5052;SDS011;2545;50.892;5.740;2022-09-16T08:12:24;1.63;;;1.27;;
5052;SDS011;2545;50.892;5.740;2022-09-16T08:14:50;4.40;;;1.20;;
5052;SDS011;2545;50.892;5.740;2022-09-16T08:17:15;3.80;;;1.47;;
5052;SDS011;2545;50.892;5.740;2022-09-16T08:19:40;5.93;;;1.50;;
5052;SDS011;2545;50.892;5.740;2022-09-16T08:22:06;4.03;;;1.30;;
5052;SDS011;2545;50.892;5.740;2022-09-16T08:24:31;3.67;;;1.63;;
5052;SDS011;2545;50.892;5.740;2022-09-16T08:26:56;3.27;;;1.27;;
5052;SDS011;2545;50.892;5.740;2022-09-16T08:29:22;4.53;;;1.40;;
5052;SDS011;2545;50.892;5.740;2022-09-16T08:31:49;6.43;;;1.70;;
5052;SDS011;2545;50.892;5.740;2022-09-16T08:34:14;2.43;;;1.97;;
5052;SDS011;2545;50.892;5.740;2022-09-16T08:36:40;5.97;;;1.50;;
5052;SDS011;2545;50.892;5.740;2022-09-16T08:39:06;5.50;;;1.40;;
5052;SDS011;2545;50.892;5.740;2022-09-16T08:50:08;6.90;;;1.70;;
5052;SDS011;2545;50.892;5.740;2022-09-16T08:52:39;3.10;;;1.90;;
5052;SDS011;2545;50.892;5.740;2022-09-16T08:58:17;3.07;;;1.17;;
5052;SDS011;2545;50.892;5.740;2022-09-16T09:00:55;7.60;;;1.73;;
5052;SDS011;2545;50.892;5.740;2022-09-16T09:03:39;9.20;;;2.40;;
5052;SDS011;2545;50.892;5.740;2022-09-16T09:14:01;3.27;;;1.60;;
5052;SDS011;2545;50.892;5.740;2022-09-16T09:16:46;3.57;;;1.30;;
5052;SDS011;2545;50.892;5.740;2022-09-16T09:19:36;4.03;;;1.60;;
5052;SDS011;2545;50.892;5.740;2022-09-16T09:22:25;1.50;;;1.30;;
5052;SDS011;2545;50.892;5.740;2022-09-16T09:30:25;9.00;;;1.90;;
5052;SDS011;2545;50.892;5.740;2022-09-16T09:33:35;5.23;;;1.40;;
5052;SDS011;2545;50.892;5.740;2022-09-16T09:35:57;10.33;;;1.50;;
5052;SDS011;2545;50.892;5.740;2022-09-16T09:38:49;6.87;;;1.70;;
5052;SDS011;2545;50.892;5.740;2022-09-16T09:43:55;2.50;;;1.20;;
5052;SDS011;2545;50.892;5.740;2022-09-16T09:46:39;2.80;;;1.43;;
5052;SDS011;2545;50.892;5.740;2022-09-16T09:49:25;4.90;;;2.23;;
5052;SDS011;2545;50.892;5.740;2022-09-16T09:54:39;7.43;;;1.63;;
5052;SDS011;2545;50.892;5.740;2022-09-16T09:57:12;5.00;;;1.70;;
5052;SDS011;2545;50.892;5.740;2022-09-16T10:02:36;3.63;;;1.20;;
5052;SDS011;2545;50.892;5.740;2022-09-16T10:05:04;4.83;;;1.57;;
5052;SDS011;2545;50.892;5.740;2022-09-16T10:07:31;7.53;;;1.70;;
5052;SDS011;2545;50.892;5.740;2022-09-16T10:10:11;5.97;;;1.47;;
5052;SDS011;2545;50.892;5.740;2022-09-16T10:12:39;7.73;;;1.60;;
5052;SDS011;2545;50.892;5.740;2022-09-16T10:15:05;8.37;;;1.57;;
5052;SDS011;2545;50.892;5.740;2022-09-16T10:17:31;3.90;;;1.73;;
5052;SDS011;2545;50.892;5.740;2022-09-16T10:19:58;1.77;;;1.17;;
5052;SDS011;2545;50.892;5.740;2022-09-16T10:22:29;4.83;;;1.33;;
5052;SDS011;2545;50.892;5.740;2022-09-16T10:24:58;4.77;;;1.93;;
5052;SDS011;2545;50.892;5.740;2022-09-16T10:27:27;3.23;;;1.83;;
5052;SDS011;2545;50.892;5.740;2022-09-16T10:35:23;8.73;;;1.57;;
5052;SDS011;2545;50.892;5.740;2022-09-16T10:37:57;4.17;;;1.50;;
5052;SDS011;2545;50.892;5.740;2022-09-16T10:40:25;7.13;;;2.00;;
5052;SDS011;2545;50.892;5.740;2022-09-16T10:42:51;7.60;;;1.50;;
5052;SDS011;2545;50.892;5.740;2022-09-16T10:47:49;2.40;;;1.30;;
5052;SDS011;2545;50.892;5.740;2022-09-16T10:50:18;5.50;;;1.70;;
5052;SDS011;2545;50.892;5.740;2022-09-16T10:52:45;7.77;;;1.70;;
5052;SDS011;2545;50.892;5.740;2022-09-16T10:55:19;5.33;;;1.83;;
5052;SDS011;2545;50.892;5.740;2022-09-16T10:57:45;7.23;;;1.70;;
5052;SDS011;2545;50.892;5.740;2022-09-16T11:08:11;5.70;;;1.50;;
5052;SDS011;2545;50.892;5.740;2022-09-16T11:11:09;4.00;;;1.40;;
5052;SDS011;2545;50.892;5.740;2022-09-16T11:16:28;3.07;;;1.43;;
5052;SDS011;2545;50.892;5.740;2022-09-16T11:19:05;6.77;;;1.60;;
5052;SDS011;2545;50.892;5.740;2022-09-16T11:30:07;1.80;;;1.20;;
5052;SDS011;2545;50.892;5.740;2022-09-16T11:44:00;6.10;;;1.50;;
5052;SDS011;2545;50.892;5.740;2022-09-16T11:46:46;5.13;;;1.23;;
5052;SDS011;2545;50.892;5.740;2022-09-16T11:57:40;3.27;;;1.40;;
5052;SDS011;2545;50.892;5.740;2022-09-16T12:00:11;3.67;;;1.57;;
5052;SDS011;2545;50.892;5.740;2022-09-16T12:05:28;3.03;;;1.50;;
5052;SDS011;2545;50.892;5.740;2022-09-16T12:08:32;3.00;;;1.70;;
5052;SDS011;2545;50.892;5.740;2022-09-16T12:16:09;5.93;;;1.23;;
5052;SDS011;2545;50.892;5.740;2022-09-16T12:18:59;2.70;;;1.30;;
5052;SDS011;2545;50.892;5.740;2022-09-16T12:21:34;4.83;;;1.50;;
5052;SDS011;2545;50.892;5.740;2022-09-16T12:24:18;8.53;;;1.23;;
5052;SDS011;2545;50.892;5.740;2022-09-16T12:29:28;3.93;;;1.40;;
5052;SDS011;2545;50.892;5.740;2022-09-16T12:32:06;9.90;;;1.10;;
5052;SDS011;2545;50.892;5.740;2022-09-16T12:34:38;6.10;;;1.37;;
5052;SDS011;2545;50.892;5.740;2022-09-16T12:39:33;1.93;;;1.00;;
5052;SDS011;2545;50.892;5.740;2022-09-16T12:52:55;2.30;;;1.60;;
5052;SDS011;2545;50.892;5.740;2022-09-16T13:03:35;3.20;;;1.50;;
5052;SDS011;2545;50.892;5.740;2022-09-16T13:06:05;2.30;;;1.17;;
5052;SDS011;2545;50.892;5.740;2022-09-16T13:08:42;3.30;;;1.30;;
5052;SDS011;2545;50.892;5.740;2022-09-16T13:11:14;2.43;;;1.10;;
5052;SDS011;2545;50.892;5.740;2022-09-16T13:13:45;6.90;;;1.43;;
5052;SDS011;2545;50.892;5.740;2022-09-16T13:16:14;2.97;;;1.37;;
5052;SDS011;2545;50.892;5.740;2022-09-16T13:21:58;4.63;;;1.50;;
5052;SDS011;2545;50.892;5.740;2022-09-16T13:24:39;2.30;;;1.30;;
5052;SDS011;2545;50.892;5.740;2022-09-16T13:27:27;6.60;;;1.30;;
5052;SDS011;2545;50.892;5.740;2022-09-16T13:32:36;4.53;;;1.43;;
5052;SDS011;2545;50.892;5.740;2022-09-16T13:36:01;8.20;;;1.80;;
5052;SDS011;2545;50.892;5.740;2022-09-16T13:37:56;2.80;;;1.70;;
5052;SDS011;2545;50.892;5.740;2022-09-16T13:40:25;8.53;;;2.10;;
5052;SDS011;2545;50.892;5.740;2022-09-16T13:50:50;3.80;;;1.67;;
5052;SDS011;2545;50.892;5.740;2022-09-16T13:53:28;2.63;;;1.30;;
5052;SDS011;2545;50.892;5.740;2022-09-16T13:55:56;7.10;;;1.60;;
5052;SDS011;2545;50.892;5.740;2022-09-16T13:58:50;2.83;;;1.33;;
5052;SDS011;2545;50.892;5.740;2022-09-16T14:01:28;2.27;;;1.30;;
5052;SDS011;2545;50.892;5.740;2022-09-16T14:06:55;4.97;;;1.40;;
5052;SDS011;2545;50.892;5.740;2022-09-16T14:09:37;2.40;;;1.27;;
5052;SDS011;2545;50.892;5.740;2022-09-16T14:12:33;4.80;;;1.30;;
5052;SDS011;2545;50.892;5.740;2022-09-16T14:15:08;6.00;;;1.50;;
5052;SDS011;2545;50.892;5.740;2022-09-16T14:17:40;6.67;;;1.50;;
5052;SDS011;2545;50.892;5.740;2022-09-16T14:20:12;2.20;;;1.43;;
5052;SDS011;2545;50.892;5.740;2022-09-16T14:22:40;3.90;;;1.50;;
5052;SDS011;2545;50.892;5.740;2022-09-16T14:25:23;6.53;;;1.40;;
5052;SDS011;2545;50.892;5.740;2022-09-16T14:27:50;4.90;;;1.53;;
5052;SDS011;2545;50.892;5.740;2022-09-16T14:30:16;1.43;;;1.00;;
5052;SDS011;2545;50.892;5.740;2022-09-16T14:32:43;3.40;;;1.20;;
5052;SDS011;2545;50.892;5.740;2022-09-16T14:35:23;26.27;;;1.97;;
5052;SDS011;2545;50.892;5.740;2022-09-16T14:37:51;3.60;;;1.67;;
5052;SDS011;2545;50.892;5.740;2022-09-16T14:40:20;3.80;;;1.87;;
5052;SDS011;2545;50.892;5.740;2022-09-16T14:42:48;3.87;;;1.37;;
5052;SDS011;2545;50.892;5.740;2022-09-16T14:45:14;2.17;;;1.53;;
5052;SDS011;2545;50.892;5.740;2022-09-16T14:47:43;2.53;;;1.00;;
5052;SDS011;2545;50.892;5.740;2022-09-16T14:50:10;5.73;;;1.10;;
5052;SDS011;2545;50.892;5.740;2022-09-16T14:52:39;7.07;;;1.40;;
5052;SDS011;2545;50.892;5.740;2022-09-16T14:55:18;8.90;;;1.00;;
5052;SDS011;2545;50.892;5.740;2022-09-16T14:57:46;6.27;;;1.10;;
5052;SDS011;2545;50.892;5.740;2022-09-16T15:00:12;2.37;;;1.13;;
5052;SDS011;2545;50.892;5.740;2022-09-16T15:02:51;4.57;;;1.80;;
5052;SDS011;2545;50.892;5.740;2022-09-16T15:08:03;3.10;;;1.10;;
5052;SDS011;2545;50.892;5.740;2022-09-16T15:10:34;3.33;;;1.10;;
5052;SDS011;2545;50.892;5.740;2022-09-16T15:13:19;1.47;;;1.10;;
5052;SDS011;2545;50.892;5.740;2022-09-16T15:15:48;1.97;;;1.20;;
5052;SDS011;2545;50.892;5.740;2022-09-16T15:18:25;2.70;;;1.27;;
5052;SDS011;2545;50.892;5.740;2022-09-16T15:20:57;3.77;;;1.10;;
5052;SDS011;2545;50.892;5.740;2022-09-16T15:23:27;4.50;;;1.40;;
5052;SDS011;2545;50.892;5.740;2022-09-16T15:25:55;3.33;;;1.20;;
5052;SDS011;2545;50.892;5.740;2022-09-16T15:28:23;2.50;;;1.23;;
5052;SDS011;2545;50.892;5.740;2022-09-16T15:30:50;4.70;;;1.70;;
5052;SDS011;2545;50.892;5.740;2022-09-16T15:35:50;8.23;;;1.80;;
5052;SDS011;2545;50.892;5.740;2022-09-16T15:38:19;4.00;;;1.30;;
5052;SDS011;2545;50.892;5.740;2022-09-16T15:40:46;9.50;;;1.57;;
5052;SDS011;2545;50.892;5.740;2022-09-16T15:43:13;3.63;;;1.63;;
5052;SDS011;2545;50.892;5.740;2022-09-16T15:45:41;2.53;;;1.33;;
5052;SDS011;2545;50.892;5.740;2022-09-16T15:50:50;7.90;;;1.43;;
5052;SDS011;2545;50.892;5.740;2022-09-16T15:53:20;2.40;;;1.40;;
5052;SDS011;2545;50.892;5.740;2022-09-16T15:56:00;2.80;;;1.33;;
5052;SDS011;2545;50.892;5.740;2022-09-16T16:01:12;5.83;;;1.60;;
5052;SDS011;2545;50.892;5.740;2022-09-16T16:06:42;4.50;;;1.40;;
5052;SDS011;2545;50.892;5.740;2022-09-16T16:09:43;6.00;;;1.87;;
5052;SDS011;2545;50.892;5.740;2022-09-16T16:12:14;3.07;;;1.60;;
5052;SDS011;2545;50.892;5.740;2022-09-16T16:14:41;6.37;;;1.97;;
5052;SDS011;2545;50.892;5.740;2022-09-16T16:17:18;4.07;;;1.80;;
5052;SDS011;2545;50.892;5.740;2022-09-16T16:19:45;6.53;;;1.77;;
5052;SDS011;2545;50.892;5.740;2022-09-16T16:22:13;8.17;;;2.17;;
5052;SDS011;2545;50.892;5.740;2022-09-16T16:24:39;7.33;;;3.13;;
5052;SDS011;2545;50.892;5.740;2022-09-16T16:27:05;13.47;;;3.70;;
5052;SDS011;2545;50.892;5.740;2022-09-16T16:29:32;5.20;;;2.53;;
5052;SDS011;2545;50.892;5.740;2022-09-16T16:32:02;11.20;;;3.90;;
5052;SDS011;2545;50.892;5.740;2022-09-16T16:34:30;8.50;;;3.60;;
5052;SDS011;2545;50.892;5.740;2022-09-16T16:36:56;5.93;;;3.17;;
5052;SDS011;2545;50.892;5.740;2022-09-16T16:39:22;11.00;;;3.70;;
5052;SDS011;2545;50.892;5.740;2022-09-16T16:41:48;7.93;;;3.63;;
5052;SDS011;2545;50.892;5.740;2022-09-16T16:44:14;8.17;;;4.00;;
5052;SDS011;2545;50.892;5.740;2022-09-16T16:46:39;10.03;;;3.97;;
5052;SDS011;2545;50.892;5.740;2022-09-16T16:49:05;7.27;;;3.60;;
5052;SDS011;2545;50.892;5.740;2022-09-16T16:51:30;6.37;;;3.63;;
5052;SDS011;2545;50.892;5.740;2022-09-16T16:53:55;5.40;;;3.37;;
5052;SDS011;2545;50.892;5.740;2022-09-16T16:56:20;7.60;;;3.70;;
5052;SDS011;2545;50.892;5.740;2022-09-16T16:58:46;12.93;;;4.50;;
5052;SDS011;2545;50.892;5.740;2022-09-16T17:01:12;9.40;;;4.60;;
5052;SDS011;2545;50.892;5.740;2022-09-16T17:03:40;8.00;;;3.57;;
5052;SDS011;2545;50.892;5.740;2022-09-16T17:06:06;5.53;;;2.90;;
5052;SDS011;2545;50.892;5.740;2022-09-16T17:08:32;5.00;;;2.90;;
5052;SDS011;2545;50.892;5.740;2022-09-16T17:11:12;7.90;;;3.03;;
5052;SDS011;2545;50.892;5.740;2022-09-16T17:13:40;8.57;;;3.20;;
5052;SDS011;2545;50.892;5.740;2022-09-16T17:16:07;5.57;;;3.07;;
5052;SDS011;2545;50.892;5.740;2022-09-16T17:18:35;8.13;;;2.70;;
5052;SDS011;2545;50.892;5.740;2022-09-16T17:21:12;7.13;;;2.60;;
5052;SDS011;2545;50.892;5.740;2022-09-16T17:23:42;7.87;;;2.63;;
5052;SDS011;2545;50.892;5.740;2022-09-16T17:26:08;7.00;;;2.10;;
5052;SDS011;2545;50.892;5.740;2022-09-16T17:28:35;4.10;;;1.87;;
5052;SDS011;2545;50.892;5.740;2022-09-16T17:31:13;6.50;;;1.80;;
5052;SDS011;2545;50.892;5.740;2022-09-16T17:33:41;3.00;;;1.70;;
5052;SDS011;2545;50.892;5.740;2022-09-16T17:36:07;5.00;;;1.80;;
5052;SDS011;2545;50.892;5.740;2022-09-16T17:38:34;3.57;;;1.63;;
5052;SDS011;2545;50.892;5.740;2022-09-16T17:43:29;2.80;;;1.87;;
5052;SDS011;2545;50.892;5.740;2022-09-16T17:45:55;3.77;;;1.70;;
5052;SDS011;2545;50.892;5.740;2022-09-16T17:48:21;9.67;;;2.30;;
5052;SDS011;2545;50.892;5.740;2022-09-16T17:50:50;4.50;;;1.83;;
5052;SDS011;2545;50.892;5.740;2022-09-16T17:53:16;7.97;;;2.47;;
5052;SDS011;2545;50.892;5.740;2022-09-16T17:55:42;6.50;;;2.00;;
5052;SDS011;2545;50.892;5.740;2022-09-16T17:58:07;4.63;;;1.83;;
5052;SDS011;2545;50.892;5.740;2022-09-16T18:00:32;7.70;;;2.37;;
5052;SDS011;2545;50.892;5.740;2022-09-16T18:02:57;6.80;;;2.40;;
5052;SDS011;2545;50.892;5.740;2022-09-16T18:05:23;4.53;;;2.00;;
5052;SDS011;2545;50.892;5.740;2022-09-16T18:07:48;4.53;;;1.80;;
5052;SDS011;2545;50.892;5.740;2022-09-16T18:10:13;6.33;;;1.53;;
5052;SDS011;2545;50.892;5.740;2022-09-16T18:12:39;11.47;;;2.10;;
5052;SDS011;2545;50.892;5.740;2022-09-16T18:15:04;6.50;;;2.13;;
5052;SDS011;2545;50.892;5.740;2022-09-16T18:17:30;6.20;;;1.67;;
5052;SDS011;2545;50.892;5.740;2022-09-16T18:19:55;6.87;;;2.23;;
5052;SDS011;2545;50.892;5.740;2022-09-16T18:22:21;8.00;;;1.60;;
5052;SDS011;2545;50.892;5.740;2022-09-16T18:24:46;5.00;;;2.30;;
5052;SDS011;2545;50.892;5.740;2022-09-16T18:27:11;8.93;;;2.37;;
5052;SDS011;2545;50.892;5.740;2022-09-16T18:29:37;6.87;;;1.77;;
5052;SDS011;2545;50.892;5.740;2022-09-16T18:32:04;7.03;;;2.07;;